sensor_id;sensor_type;location;lat;lon;timestamp;P1;durP1;ratioP1;P2;durP2;ratioP2
7605;SDS011;3844;53.360;9.738;2022-07-10T00:02:26;6.50;;;1.02;;
7605;SDS011;3844;53.360;9.738;2022-07-10T00:04:52;6.40;;;1.05;;
7605;SDS011;3844;53.360;9.738;2022-07-10T00:07:17;4.97;;;1.20;;
7605;SDS011;3844;53.360;9.738;2022-07-10T00:09:43;5.63;;;1.02;;
7605;SDS011;3844;53.360;9.738;2022-07-10T00:12:09;3.45;;;0.70;;
7605;SDS011;3844;53.360;9.738;2022-07-10T00:14:35;4.32;;;0.90;;
7605;SDS011;3844;53.360;9.738;2022-07-10T00:17:01;4.85;;;0.80;;
7605;SDS011;3844;53.360;9.738;2022-07-10T00:19:27;3.63;;;0.77;;
7605;SDS011;3844;53.360;9.738;2022-07-10T00:21:53;2.90;;;0.65;;
7605;SDS011;3844;53.360;9.738;2022-07-10T00:24:19;3.50;;;0.82;;
7605;SDS011;3844;53.360;9.738;2022-07-10T00:26:44;4.90;;;0.80;;
7605;SDS011;3844;53.360;9.738;2022-07-10T00:29:11;5.95;;;0.90;;
7605;SDS011;3844;53.360;9.738;2022-07-10T00:31:37;7.20;;;1.08;;
7605;SDS011;3844;53.360;9.738;2022-07-10T00:34:02;6.15;;;1.08;;
7605;SDS011;3844;53.360;9.738;2022-07-10T00:36:28;6.80;;;1.00;;
7605;SDS011;3844;53.360;9.738;2022-07-10T00:38:54;9.10;;;1.10;;
7605;SDS011;3844;53.360;9.738;2022-07-10T00:41:20;5.93;;;1.00;;
7605;SDS011;3844;53.360;9.738;2022-07-10T00:43:52;5.07;;;1.00;;
7605;SDS011;3844;53.360;9.738;2022-07-10T00:46:22;5.28;;;1.00;;
7605;SDS011;3844;53.360;9.738;2022-07-10T00:48:49;6.38;;;1.10;;
7605;SDS011;3844;53.360;9.738;2022-07-10T00:51:16;7.18;;;0.95;;
7605;SDS011;3844;53.360;9.738;2022-07-10T00:53:42;8.10;;;1.23;;
7605;SDS011;3844;53.360;9.738;2022-07-10T00:56:11;8.52;;;1.20;;
7605;SDS011;3844;53.360;9.738;2022-07-10T00:58:39;3.70;;;0.80;;
7605;SDS011;3844;53.360;9.738;2022-07-10T01:01:06;5.13;;;0.95;;
7605;SDS011;3844;53.360;9.738;2022-07-10T01:03:32;5.60;;;1.00;;
7605;SDS011;3844;53.360;9.738;2022-07-10T01:05:58;6.35;;;1.00;;
7605;SDS011;3844;53.360;9.738;2022-07-10T01:08:24;7.32;;;1.10;;
7605;SDS011;3844;53.360;9.738;2022-07-10T01:10:50;4.40;;;0.88;;
7605;SDS011;3844;53.360;9.738;2022-07-10T01:13:16;6.43;;;0.98;;
7605;SDS011;3844;53.360;9.738;2022-07-10T01:15:42;7.13;;;0.90;;
7605;SDS011;3844;53.360;9.738;2022-07-10T01:18:08;4.97;;;1.00;;
7605;SDS011;3844;53.360;9.738;2022-07-10T01:20:35;7.90;;;1.23;;
7605;SDS011;3844;53.360;9.738;2022-07-10T01:23:00;9.02;;;1.10;;
7605;SDS011;3844;53.360;9.738;2022-07-10T01:25:27;6.28;;;1.00;;
7605;SDS011;3844;53.360;9.738;2022-07-10T01:27:53;6.18;;;1.10;;
7605;SDS011;3844;53.360;9.738;2022-07-10T01:30:19;8.57;;;0.90;;
7605;SDS011;3844;53.360;9.738;2022-07-10T01:32:46;7.40;;;1.30;;
7605;SDS011;3844;53.360;9.738;2022-07-10T01:35:12;8.40;;;1.30;;
7605;SDS011;3844;53.360;9.738;2022-07-10T01:37:39;6.25;;;1.10;;
7605;SDS011;3844;53.360;9.738;2022-07-10T01:40:06;6.15;;;1.20;;
7605;SDS011;3844;53.360;9.738;2022-07-10T01:42:33;7.55;;;1.20;;
7605;SDS011;3844;53.360;9.738;2022-07-10T01:44:59;7.68;;;1.17;;
7605;SDS011;3844;53.360;9.738;2022-07-10T01:47:25;5.82;;;1.10;;
7605;SDS011;3844;53.360;9.738;2022-07-10T01:49:52;5.65;;;0.90;;
7605;SDS011;3844;53.360;9.738;2022-07-10T01:52:22;7.15;;;1.10;;
7605;SDS011;3844;53.360;9.738;2022-07-10T01:54:47;5.57;;;1.08;;
7605;SDS011;3844;53.360;9.738;2022-07-10T01:57:13;8.23;;;1.13;;
7605;SDS011;3844;53.360;9.738;2022-07-10T01:59:39;6.57;;;1.00;;
7605;SDS011;3844;53.360;9.738;2022-07-10T02:02:05;5.50;;;1.10;;
7605;SDS011;3844;53.360;9.738;2022-07-10T02:04:31;7.93;;;1.10;;
7605;SDS011;3844;53.360;9.738;2022-07-10T02:07:06;9.15;;;1.25;;
7605;SDS011;3844;53.360;9.738;2022-07-10T02:09:33;7.85;;;1.30;;
7605;SDS011;3844;53.360;9.738;2022-07-10T02:11:59;9.95;;;1.30;;
7605;SDS011;3844;53.360;9.738;2022-07-10T02:14:24;7.28;;;1.10;;
7605;SDS011;3844;53.360;9.738;2022-07-10T02:16:50;4.40;;;0.95;;
7605;SDS011;3844;53.360;9.738;2022-07-10T02:19:16;6.38;;;1.05;;
7605;SDS011;3844;53.360;9.738;2022-07-10T02:21:41;5.53;;;1.10;;
7605;SDS011;3844;53.360;9.738;2022-07-10T02:24:07;6.00;;;1.10;;
7605;SDS011;3844;53.360;9.738;2022-07-10T02:26:33;6.15;;;1.00;;
7605;SDS011;3844;53.360;9.738;2022-07-10T02:28:59;5.15;;;1.17;;
7605;SDS011;3844;53.360;9.738;2022-07-10T02:31:24;8.13;;;1.20;;
7605;SDS011;3844;53.360;9.738;2022-07-10T02:33:50;7.25;;;1.40;;
7605;SDS011;3844;53.360;9.738;2022-07-10T02:36:16;7.45;;;1.10;;
7605;SDS011;3844;53.360;9.738;2022-07-10T02:38:42;7.38;;;1.10;;
7605;SDS011;3844;53.360;9.738;2022-07-10T02:41:07;5.93;;;1.10;;
7605;SDS011;3844;53.360;9.738;2022-07-10T02:43:33;7.20;;;1.30;;
7605;SDS011;3844;53.360;9.738;2022-07-10T02:45:59;4.45;;;1.00;;
7605;SDS011;3844;53.360;9.738;2022-07-10T02:48:24;12.35;;;1.50;;
7605;SDS011;3844;53.360;9.738;2022-07-10T02:50:50;5.68;;;1.30;;
7605;SDS011;3844;53.360;9.738;2022-07-10T02:53:16;6.40;;;1.30;;
7605;SDS011;3844;53.360;9.738;2022-07-10T02:55:41;5.53;;;1.30;;
7605;SDS011;3844;53.360;9.738;2022-07-10T02:58:07;7.45;;;1.20;;
7605;SDS011;3844;53.360;9.738;2022-07-10T03:00:34;8.68;;;1.33;;
7605;SDS011;3844;53.360;9.738;2022-07-10T03:03:01;9.50;;;1.60;;
7605;SDS011;3844;53.360;9.738;2022-07-10T03:05:27;9.23;;;1.52;;
7605;SDS011;3844;53.360;9.738;2022-07-10T03:07:52;9.95;;;1.55;;
7605;SDS011;3844;53.360;9.738;2022-07-10T03:10:18;5.35;;;1.33;;
7605;SDS011;3844;53.360;9.738;2022-07-10T03:12:44;6.80;;;1.35;;
7605;SDS011;3844;53.360;9.738;2022-07-10T03:15:10;9.18;;;1.48;;
7605;SDS011;3844;53.360;9.738;2022-07-10T03:17:36;9.27;;;1.70;;
7605;SDS011;3844;53.360;9.738;2022-07-10T03:20:02;10.10;;;1.60;;
7605;SDS011;3844;53.360;9.738;2022-07-10T03:22:28;10.50;;;1.73;;
7605;SDS011;3844;53.360;9.738;2022-07-10T03:24:54;8.55;;;1.60;;
7605;SDS011;3844;53.360;9.738;2022-07-10T03:27:20;8.30;;;1.65;;
7605;SDS011;3844;53.360;9.738;2022-07-10T03:29:45;7.00;;;1.40;;
7605;SDS011;3844;53.360;9.738;2022-07-10T03:32:11;8.82;;;1.67;;
7605;SDS011;3844;53.360;9.738;2022-07-10T03:34:37;10.65;;;2.00;;
7605;SDS011;3844;53.360;9.738;2022-07-10T03:37:03;7.13;;;1.60;;
7605;SDS011;3844;53.360;9.738;2022-07-10T03:39:29;10.00;;;1.70;;
7605;SDS011;3844;53.360;9.738;2022-07-10T03:41:54;10.25;;;1.90;;
7605;SDS011;3844;53.360;9.738;2022-07-10T03:44:20;9.30;;;1.95;;
7605;SDS011;3844;53.360;9.738;2022-07-10T03:46:46;11.27;;;1.90;;
7605;SDS011;3844;53.360;9.738;2022-07-10T03:49:12;9.20;;;1.80;;
7605;SDS011;3844;53.360;9.738;2022-07-10T03:51:38;10.85;;;2.10;;
7605;SDS011;3844;53.360;9.738;2022-07-10T03:54:04;12.23;;;2.20;;
7605;SDS011;3844;53.360;9.738;2022-07-10T03:56:30;9.77;;;1.77;;
7605;SDS011;3844;53.360;9.738;2022-07-10T03:59:14;8.20;;;1.80;;
7605;SDS011;3844;53.360;9.738;2022-07-10T04:01:40;12.45;;;2.17;;
7605;SDS011;3844;53.360;9.738;2022-07-10T04:04:06;10.82;;;2.00;;
7605;SDS011;3844;53.360;9.738;2022-07-10T04:06:31;10.68;;;1.92;;
7605;SDS011;3844;53.360;9.738;2022-07-10T04:08:57;11.57;;;1.90;;
7605;SDS011;3844;53.360;9.738;2022-07-10T04:11:23;10.43;;;2.03;;
7605;SDS011;3844;53.360;9.738;2022-07-10T04:13:48;11.13;;;2.17;;
7605;SDS011;3844;53.360;9.738;2022-07-10T04:16:14;11.63;;;2.22;;
7605;SDS011;3844;53.360;9.738;2022-07-10T04:18:40;10.60;;;2.05;;
7605;SDS011;3844;53.360;9.738;2022-07-10T04:21:06;9.63;;;2.05;;
7605;SDS011;3844;53.360;9.738;2022-07-10T04:23:32;10.63;;;2.30;;
7605;SDS011;3844;53.360;9.738;2022-07-10T04:25:59;6.15;;;1.60;;
7605;SDS011;3844;53.360;9.738;2022-07-10T04:28:25;9.50;;;1.92;;
7605;SDS011;3844;53.360;9.738;2022-07-10T04:30:51;10.75;;;2.03;;
7605;SDS011;3844;53.360;9.738;2022-07-10T04:33:17;9.30;;;2.03;;
7605;SDS011;3844;53.360;9.738;2022-07-10T04:35:42;10.90;;;2.28;;
7605;SDS011;3844;53.360;9.738;2022-07-10T04:38:08;7.20;;;1.90;;
7605;SDS011;3844;53.360;9.738;2022-07-10T04:40:34;11.43;;;1.98;;
7605;SDS011;3844;53.360;9.738;2022-07-10T04:43:00;13.35;;;2.10;;
7605;SDS011;3844;53.360;9.738;2022-07-10T04:45:25;9.77;;;1.80;;
7605;SDS011;3844;53.360;9.738;2022-07-10T04:47:51;10.40;;;2.00;;
7605;SDS011;3844;53.360;9.738;2022-07-10T04:50:17;6.93;;;1.65;;
7605;SDS011;3844;53.360;9.738;2022-07-10T04:52:43;8.48;;;1.67;;
7605;SDS011;3844;53.360;9.738;2022-07-10T04:55:09;10.57;;;2.15;;
7605;SDS011;3844;53.360;9.738;2022-07-10T04:57:35;10.18;;;1.95;;
7605;SDS011;3844;53.360;9.738;2022-07-10T05:00:00;9.43;;;1.70;;
7605;SDS011;3844;53.360;9.738;2022-07-10T05:02:27;12.10;;;2.10;;
7605;SDS011;3844;53.360;9.738;2022-07-10T05:04:52;11.43;;;1.80;;
7605;SDS011;3844;53.360;9.738;2022-07-10T05:07:18;11.57;;;2.03;;
7605;SDS011;3844;53.360;9.738;2022-07-10T05:09:44;8.95;;;1.80;;
7605;SDS011;3844;53.360;9.738;2022-07-10T05:12:10;9.27;;;1.70;;
7605;SDS011;3844;53.360;9.738;2022-07-10T05:14:36;11.50;;;1.80;;
7605;SDS011;3844;53.360;9.738;2022-07-10T05:17:01;6.97;;;1.67;;
7605;SDS011;3844;53.360;9.738;2022-07-10T05:19:27;10.18;;;1.90;;
7605;SDS011;3844;53.360;9.738;2022-07-10T05:21:54;9.70;;;1.92;;
7605;SDS011;3844;53.360;9.738;2022-07-10T05:24:20;7.95;;;1.58;;
7605;SDS011;3844;53.360;9.738;2022-07-10T05:26:46;10.45;;;1.73;;
7605;SDS011;3844;53.360;9.738;2022-07-10T05:29:11;10.95;;;1.95;;
7605;SDS011;3844;53.360;9.738;2022-07-10T05:31:37;9.65;;;1.73;;
7605;SDS011;3844;53.360;9.738;2022-07-10T05:34:03;13.55;;;2.28;;
7605;SDS011;3844;53.360;9.738;2022-07-10T05:36:29;10.40;;;1.88;;
7605;SDS011;3844;53.360;9.738;2022-07-10T05:38:54;11.85;;;2.10;;
7605;SDS011;3844;53.360;9.738;2022-07-10T05:41:20;12.00;;;2.08;;
7605;SDS011;3844;53.360;9.738;2022-07-10T05:43:46;11.25;;;1.67;;
7605;SDS011;3844;53.360;9.738;2022-07-10T05:46:12;12.55;;;2.00;;
7605;SDS011;3844;53.360;9.738;2022-07-10T05:48:38;12.13;;;2.00;;
7605;SDS011;3844;53.360;9.738;2022-07-10T05:51:04;8.52;;;1.83;;
7605;SDS011;3844;53.360;9.738;2022-07-10T05:53:29;15.82;;;1.85;;
7605;SDS011;3844;53.360;9.738;2022-07-10T05:55:59;13.02;;;1.85;;
7605;SDS011;3844;53.360;9.738;2022-07-10T05:58:26;13.77;;;2.10;;
7605;SDS011;3844;53.360;9.738;2022-07-10T06:00:52;12.40;;;2.00;;
7605;SDS011;3844;53.360;9.738;2022-07-10T06:03:17;12.48;;;2.22;;
7605;SDS011;3844;53.360;9.738;2022-07-10T06:05:43;11.90;;;2.10;;
7605;SDS011;3844;53.360;9.738;2022-07-10T06:08:10;11.98;;;2.20;;
7605;SDS011;3844;53.360;9.738;2022-07-10T06:10:36;10.20;;;1.90;;
7605;SDS011;3844;53.360;9.738;2022-07-10T06:13:02;10.45;;;1.70;;
7605;SDS011;3844;53.360;9.738;2022-07-10T06:15:28;13.73;;;2.00;;
7605;SDS011;3844;53.360;9.738;2022-07-10T06:17:57;9.20;;;1.75;;
7605;SDS011;3844;53.360;9.738;2022-07-10T06:20:23;11.75;;;2.05;;
7605;SDS011;3844;53.360;9.738;2022-07-10T06:22:52;10.63;;;1.83;;
7605;SDS011;3844;53.360;9.738;2022-07-10T06:25:18;11.48;;;2.00;;
7605;SDS011;3844;53.360;9.738;2022-07-10T06:27:44;11.15;;;1.80;;
7605;SDS011;3844;53.360;9.738;2022-07-10T06:30:10;7.75;;;1.58;;
7605;SDS011;3844;53.360;9.738;2022-07-10T06:32:36;12.95;;;2.10;;
7605;SDS011;3844;53.360;9.738;2022-07-10T06:35:02;10.35;;;1.90;;
7605;SDS011;3844;53.360;9.738;2022-07-10T06:37:29;11.18;;;1.77;;
7605;SDS011;3844;53.360;9.738;2022-07-10T06:39:56;12.32;;;2.17;;
7605;SDS011;3844;53.360;9.738;2022-07-10T06:42:21;12.05;;;2.05;;
7605;SDS011;3844;53.360;9.738;2022-07-10T06:44:47;9.30;;;1.92;;
7605;SDS011;3844;53.360;9.738;2022-07-10T06:47:14;10.60;;;2.22;;
7605;SDS011;3844;53.360;9.738;2022-07-10T06:50:01;12.45;;;2.30;;
7605;SDS011;3844;53.360;9.738;2022-07-10T06:52:32;9.45;;;1.95;;
7605;SDS011;3844;53.360;9.738;2022-07-10T06:54:58;13.55;;;2.10;;
7605;SDS011;3844;53.360;9.738;2022-07-10T06:57:24;11.13;;;1.77;;
7605;SDS011;3844;53.360;9.738;2022-07-10T06:59:50;14.43;;;2.13;;
7605;SDS011;3844;53.360;9.738;2022-07-10T07:02:17;9.60;;;1.92;;
7605;SDS011;3844;53.360;9.738;2022-07-10T07:04:43;16.08;;;2.10;;
7605;SDS011;3844;53.360;9.738;2022-07-10T07:07:11;7.57;;;1.65;;
7605;SDS011;3844;53.360;9.738;2022-07-10T07:09:40;10.25;;;1.70;;
7605;SDS011;3844;53.360;9.738;2022-07-10T07:12:07;11.75;;;1.90;;
7605;SDS011;3844;53.360;9.738;2022-07-10T07:14:34;11.57;;;1.92;;
7605;SDS011;3844;53.360;9.738;2022-07-10T07:17:00;11.52;;;2.00;;
7605;SDS011;3844;53.360;9.738;2022-07-10T07:19:31;10.32;;;1.58;;
7605;SDS011;3844;53.360;9.738;2022-07-10T07:22:17;12.32;;;2.20;;
7605;SDS011;3844;53.360;9.738;2022-07-10T07:25:05;13.65;;;2.10;;
7605;SDS011;3844;53.360;9.738;2022-07-10T07:27:33;11.82;;;1.77;;
7605;SDS011;3844;53.360;9.738;2022-07-10T07:30:03;11.15;;;2.22;;
7605;SDS011;3844;53.360;9.738;2022-07-10T07:32:31;9.70;;;1.95;;
7605;SDS011;3844;53.360;9.738;2022-07-10T07:34:57;14.57;;;2.20;;
7605;SDS011;3844;53.360;9.738;2022-07-10T07:37:33;11.93;;;2.00;;
7605;SDS011;3844;53.360;9.738;2022-07-10T07:40:21;11.73;;;2.03;;
7605;SDS011;3844;53.360;9.738;2022-07-10T07:42:51;9.20;;;1.60;;
7605;SDS011;3844;53.360;9.738;2022-07-10T07:45:21;10.05;;;1.80;;
7605;SDS011;3844;53.360;9.738;2022-07-10T07:47:51;7.63;;;1.60;;
7605;SDS011;3844;53.360;9.738;2022-07-10T07:50:26;9.95;;;1.67;;
7605;SDS011;3844;53.360;9.738;2022-07-10T07:52:53;10.07;;;1.70;;
7605;SDS011;3844;53.360;9.738;2022-07-10T07:55:20;7.00;;;1.50;;
7605;SDS011;3844;53.360;9.738;2022-07-10T07:57:46;7.13;;;1.40;;
7605;SDS011;3844;53.360;9.738;2022-07-10T08:00:14;8.48;;;1.60;;
7605;SDS011;3844;53.360;9.738;2022-07-10T08:02:43;6.63;;;1.55;;
7605;SDS011;3844;53.360;9.738;2022-07-10T08:05:09;11.85;;;1.70;;
7605;SDS011;3844;53.360;9.738;2022-07-10T08:10:12;9.38;;;1.92;;
7605;SDS011;3844;53.360;9.738;2022-07-10T08:12:40;6.65;;;1.58;;
7605;SDS011;3844;53.360;9.738;2022-07-10T08:15:07;6.55;;;1.50;;
7605;SDS011;3844;53.360;9.738;2022-07-10T08:17:33;6.78;;;1.70;;
7605;SDS011;3844;53.360;9.738;2022-07-10T08:19:59;6.40;;;1.42;;
7605;SDS011;3844;53.360;9.738;2022-07-10T08:22:25;8.02;;;1.60;;
7605;SDS011;3844;53.360;9.738;2022-07-10T08:24:51;11.82;;;1.90;;
7605;SDS011;3844;53.360;9.738;2022-07-10T08:27:16;10.23;;;1.88;;
7605;SDS011;3844;53.360;9.738;2022-07-10T08:29:42;8.65;;;1.50;;
7605;SDS011;3844;53.360;9.738;2022-07-10T08:32:08;9.70;;;1.63;;
7605;SDS011;3844;53.360;9.738;2022-07-10T08:34:35;8.20;;;1.58;;
7605;SDS011;3844;53.360;9.738;2022-07-10T08:37:01;7.00;;;1.50;;
7605;SDS011;3844;53.360;9.738;2022-07-10T08:39:27;7.53;;;1.27;;
7605;SDS011;3844;53.360;9.738;2022-07-10T08:41:53;8.35;;;1.80;;
7605;SDS011;3844;53.360;9.738;2022-07-10T08:44:19;9.68;;;1.60;;
7605;SDS011;3844;53.360;9.738;2022-07-10T08:46:45;11.05;;;1.70;;
7605;SDS011;3844;53.360;9.738;2022-07-10T08:49:11;10.10;;;1.42;;
7605;SDS011;3844;53.360;9.738;2022-07-10T08:51:44;7.68;;;1.40;;
7605;SDS011;3844;53.360;9.738;2022-07-10T08:54:17;6.07;;;1.13;;
7605;SDS011;3844;53.360;9.738;2022-07-10T08:56:43;7.82;;;1.30;;
7605;SDS011;3844;53.360;9.738;2022-07-10T08:59:09;8.85;;;1.42;;
7605;SDS011;3844;53.360;9.738;2022-07-10T09:01:38;8.10;;;1.58;;
7605;SDS011;3844;53.360;9.738;2022-07-10T09:04:04;6.53;;;1.30;;
7605;SDS011;3844;53.360;9.738;2022-07-10T09:06:30;10.32;;;1.45;;
7605;SDS011;3844;53.360;9.738;2022-07-10T09:11:29;8.05;;;1.38;;
7605;SDS011;3844;53.360;9.738;2022-07-10T09:14:04;8.98;;;1.45;;
7605;SDS011;3844;53.360;9.738;2022-07-10T09:16:37;8.63;;;1.75;;
7605;SDS011;3844;53.360;9.738;2022-07-10T09:19:19;7.93;;;1.48;;
7605;SDS011;3844;53.360;9.738;2022-07-10T09:21:49;8.55;;;1.67;;
7605;SDS011;3844;53.360;9.738;2022-07-10T09:24:19;9.20;;;1.63;;
7605;SDS011;3844;53.360;9.738;2022-07-10T09:27:08;7.93;;;1.60;;
7605;SDS011;3844;53.360;9.738;2022-07-10T09:29:44;8.73;;;1.70;;
7605;SDS011;3844;53.360;9.738;2022-07-10T09:32:16;8.98;;;1.50;;
7605;SDS011;3844;53.360;9.738;2022-07-10T09:34:43;8.35;;;1.63;;
7605;SDS011;3844;53.360;9.738;2022-07-10T09:37:17;9.10;;;2.15;;
7605;SDS011;3844;53.360;9.738;2022-07-10T09:42:33;7.75;;;1.50;;
7605;SDS011;3844;53.360;9.738;2022-07-10T09:47:42;10.52;;;1.70;;
7605;SDS011;3844;53.360;9.738;2022-07-10T09:50:21;8.70;;;1.48;;
7605;SDS011;3844;53.360;9.738;2022-07-10T09:52:49;7.32;;;1.30;;
7605;SDS011;3844;53.360;9.738;2022-07-10T09:55:18;7.40;;;1.33;;
7605;SDS011;3844;53.360;9.738;2022-07-10T09:57:46;6.78;;;1.35;;
7605;SDS011;3844;53.360;9.738;2022-07-10T10:00:17;7.63;;;1.38;;
7605;SDS011;3844;53.360;9.738;2022-07-10T10:02:43;8.95;;;1.40;;
7605;SDS011;3844;53.360;9.738;2022-07-10T10:05:10;7.05;;;1.35;;
7605;SDS011;3844;53.360;9.738;2022-07-10T10:07:38;5.88;;;1.27;;
7605;SDS011;3844;53.360;9.738;2022-07-10T10:10:04;7.32;;;1.30;;
7605;SDS011;3844;53.360;9.738;2022-07-10T10:12:39;7.20;;;1.50;;
7605;SDS011;3844;53.360;9.738;2022-07-10T10:15:10;6.25;;;1.30;;
7605;SDS011;3844;53.360;9.738;2022-07-10T10:17:36;8.50;;;1.52;;
7605;SDS011;3844;53.360;9.738;2022-07-10T10:20:05;6.72;;;1.50;;
7605;SDS011;3844;53.360;9.738;2022-07-10T10:22:52;7.65;;;1.38;;
7605;SDS011;3844;53.360;9.738;2022-07-10T10:25:20;7.53;;;1.50;;
7605;SDS011;3844;53.360;9.738;2022-07-10T10:27:48;7.22;;;1.33;;
7605;SDS011;3844;53.360;9.738;2022-07-10T10:30:15;10.55;;;1.50;;
7605;SDS011;3844;53.360;9.738;2022-07-10T10:32:42;8.85;;;1.65;;
7605;SDS011;3844;53.360;9.738;2022-07-10T10:35:08;9.00;;;1.70;;
7605;SDS011;3844;53.360;9.738;2022-07-10T10:40:06;11.15;;;1.70;;
7605;SDS011;3844;53.360;9.738;2022-07-10T10:47:57;9.50;;;1.60;;
7605;SDS011;3844;53.360;9.738;2022-07-10T10:53:04;8.38;;;1.52;;
7605;SDS011;3844;53.360;9.738;2022-07-10T10:55:30;8.02;;;1.90;;
7605;SDS011;3844;53.360;9.738;2022-07-10T10:58:17;6.80;;;1.60;;
7605;SDS011;3844;53.360;9.738;2022-07-10T11:00:43;10.55;;;1.38;;
7605;SDS011;3844;53.360;9.738;2022-07-10T11:03:13;8.15;;;1.77;;
7605;SDS011;3844;53.360;9.738;2022-07-10T11:05:40;8.52;;;1.60;;
7605;SDS011;3844;53.360;9.738;2022-07-10T11:08:08;8.15;;;1.50;;
7605;SDS011;3844;53.360;9.738;2022-07-10T11:10:34;6.88;;;1.35;;
7605;SDS011;3844;53.360;9.738;2022-07-10T11:13:05;8.77;;;1.63;;
7605;SDS011;3844;53.360;9.738;2022-07-10T11:15:32;8.38;;;1.60;;
7605;SDS011;3844;53.360;9.738;2022-07-10T11:17:59;8.55;;;1.73;;
7605;SDS011;3844;53.360;9.738;2022-07-10T11:20:33;8.73;;;1.50;;
7605;SDS011;3844;53.360;9.738;2022-07-10T11:26:03;6.13;;;1.55;;
7605;SDS011;3844;53.360;9.738;2022-07-10T11:31:19;7.80;;;1.63;;
7605;SDS011;3844;53.360;9.738;2022-07-10T11:33:49;11.05;;;2.65;;
7605;SDS011;3844;53.360;9.738;2022-07-10T11:36:18;7.32;;;1.45;;
7605;SDS011;3844;53.360;9.738;2022-07-10T11:38:57;9.13;;;1.80;;
7605;SDS011;3844;53.360;9.738;2022-07-10T11:41:30;6.32;;;1.70;;
7605;SDS011;3844;53.360;9.738;2022-07-10T11:44:01;7.05;;;1.67;;
7605;SDS011;3844;53.360;9.738;2022-07-10T11:46:32;10.15;;;2.20;;
7605;SDS011;3844;53.360;9.738;2022-07-10T11:49:02;9.35;;;1.60;;
7605;SDS011;3844;53.360;9.738;2022-07-10T11:51:37;8.75;;;1.60;;
7605;SDS011;3844;53.360;9.738;2022-07-10T11:56:42;6.18;;;1.40;;
7605;SDS011;3844;53.360;9.738;2022-07-10T11:59:17;7.78;;;1.30;;
7605;SDS011;3844;53.360;9.738;2022-07-10T12:01:48;9.48;;;1.60;;
7605;SDS011;3844;53.360;9.738;2022-07-10T12:04:16;5.75;;;1.20;;
7605;SDS011;3844;53.360;9.738;2022-07-10T12:06:44;7.78;;;1.15;;
7605;SDS011;3844;53.360;9.738;2022-07-10T12:09:12;6.93;;;1.40;;
7605;SDS011;3844;53.360;9.738;2022-07-10T12:11:43;7.55;;;1.30;;
7605;SDS011;3844;53.360;9.738;2022-07-10T12:14:22;6.75;;;1.40;;
7605;SDS011;3844;53.360;9.738;2022-07-10T12:16:49;6.93;;;1.38;;
7605;SDS011;3844;53.360;9.738;2022-07-10T12:19:17;6.43;;;1.30;;
7605;SDS011;3844;53.360;9.738;2022-07-10T12:21:46;8.10;;;1.40;;
7605;SDS011;3844;53.360;9.738;2022-07-10T12:24:13;6.13;;;1.30;;
7605;SDS011;3844;53.360;9.738;2022-07-10T12:26:42;6.95;;;1.30;;
7605;SDS011;3844;53.360;9.738;2022-07-10T12:31:43;8.40;;;1.50;;
7605;SDS011;3844;53.360;9.738;2022-07-10T12:34:10;7.50;;;1.33;;
7605;SDS011;3844;53.360;9.738;2022-07-10T12:36:52;8.00;;;1.50;;
7605;SDS011;3844;53.360;9.738;2022-07-10T12:39:19;6.38;;;1.20;;
7605;SDS011;3844;53.360;9.738;2022-07-10T12:42:03;6.22;;;1.35;;
7605;SDS011;3844;53.360;9.738;2022-07-10T12:44:30;5.97;;;1.33;;
7605;SDS011;3844;53.360;9.738;2022-07-10T12:47:05;10.18;;;1.60;;
7605;SDS011;3844;53.360;9.738;2022-07-10T12:52:26;6.50;;;1.10;;
7605;SDS011;3844;53.360;9.738;2022-07-10T13:00:29;9.20;;;1.58;;
7605;SDS011;3844;53.360;9.738;2022-07-10T13:03:06;6.97;;;1.45;;
7605;SDS011;3844;53.360;9.738;2022-07-10T13:05:34;7.97;;;1.50;;
7605;SDS011;3844;53.360;9.738;2022-07-10T13:10:40;6.35;;;1.52;;
7605;SDS011;3844;53.360;9.738;2022-07-10T13:13:06;7.50;;;1.35;;
7605;SDS011;3844;53.360;9.738;2022-07-10T13:15:32;5.93;;;1.50;;
7605;SDS011;3844;53.360;9.738;2022-07-10T13:18:04;7.07;;;1.50;;
7605;SDS011;3844;53.360;9.738;2022-07-10T13:20:37;9.77;;;1.40;;
7605;SDS011;3844;53.360;9.738;2022-07-10T13:23:03;9.15;;;1.50;;
7605;SDS011;3844;53.360;9.738;2022-07-10T13:25:29;6.57;;;1.15;;
7605;SDS011;3844;53.360;9.738;2022-07-10T13:27:55;9.68;;;1.40;;
7605;SDS011;3844;53.360;9.738;2022-07-10T13:30:21;6.28;;;1.30;;
7605;SDS011;3844;53.360;9.738;2022-07-10T13:32:46;6.65;;;1.35;;
7605;SDS011;3844;53.360;9.738;2022-07-10T13:35:12;5.78;;;1.30;;
7605;SDS011;3844;53.360;9.738;2022-07-10T13:37:38;7.95;;;1.45;;
7605;SDS011;3844;53.360;9.738;2022-07-10T13:40:04;6.47;;;1.17;;
7605;SDS011;3844;53.360;9.738;2022-07-10T13:42:31;6.95;;;1.20;;
7605;SDS011;3844;53.360;9.738;2022-07-10T13:44:56;5.72;;;1.10;;
7605;SDS011;3844;53.360;9.738;2022-07-10T13:47:22;8.48;;;1.60;;
7605;SDS011;3844;53.360;9.738;2022-07-10T13:49:48;7.28;;;1.50;;
7605;SDS011;3844;53.360;9.738;2022-07-10T13:52:14;10.68;;;1.65;;
7605;SDS011;3844;53.360;9.738;2022-07-10T13:54:40;6.28;;;1.50;;
7605;SDS011;3844;53.360;9.738;2022-07-10T13:57:06;8.43;;;1.30;;
7605;SDS011;3844;53.360;9.738;2022-07-10T13:59:32;10.00;;;1.67;;
7605;SDS011;3844;53.360;9.738;2022-07-10T14:01:57;9.73;;;1.65;;
7605;SDS011;3844;53.360;9.738;2022-07-10T14:04:23;7.28;;;1.63;;
7605;SDS011;3844;53.360;9.738;2022-07-10T14:06:49;7.53;;;1.38;;
7605;SDS011;3844;53.360;9.738;2022-07-10T14:09:14;9.23;;;1.67;;
7605;SDS011;3844;53.360;9.738;2022-07-10T14:11:40;6.50;;;1.30;;
7605;SDS011;3844;53.360;9.738;2022-07-10T14:14:09;6.22;;;1.30;;
7605;SDS011;3844;53.360;9.738;2022-07-10T14:16:36;7.35;;;1.27;;
7605;SDS011;3844;53.360;9.738;2022-07-10T14:19:01;6.82;;;1.30;;
7605;SDS011;3844;53.360;9.738;2022-07-10T14:21:27;7.82;;;1.45;;
7605;SDS011;3844;53.360;9.738;2022-07-10T14:23:53;8.55;;;1.42;;
7605;SDS011;3844;53.360;9.738;2022-07-10T14:26:21;6.75;;;1.48;;
7605;SDS011;3844;53.360;9.738;2022-07-10T14:28:48;9.13;;;1.50;;
7605;SDS011;3844;53.360;9.738;2022-07-10T14:31:13;8.00;;;1.30;;
7605;SDS011;3844;53.360;9.738;2022-07-10T14:33:39;6.68;;;1.30;;
7605;SDS011;3844;53.360;9.738;2022-07-10T14:36:05;12.10;;;1.50;;
7605;SDS011;3844;53.360;9.738;2022-07-10T14:38:31;6.10;;;1.33;;
7605;SDS011;3844;53.360;9.738;2022-07-10T14:40:57;7.05;;;1.48;;
7605;SDS011;3844;53.360;9.738;2022-07-10T14:43:24;6.93;;;1.50;;
7605;SDS011;3844;53.360;9.738;2022-07-10T14:45:50;7.15;;;1.40;;
7605;SDS011;3844;53.360;9.738;2022-07-10T14:48:16;7.53;;;1.45;;
7605;SDS011;3844;53.360;9.738;2022-07-10T14:50:42;8.27;;;1.50;;
7605;SDS011;3844;53.360;9.738;2022-07-10T14:53:08;5.80;;;1.10;;
7605;SDS011;3844;53.360;9.738;2022-07-10T14:55:34;7.43;;;1.42;;
7605;SDS011;3844;53.360;9.738;2022-07-10T14:58:01;7.25;;;1.48;;
7605;SDS011;3844;53.360;9.738;2022-07-10T15:00:27;5.55;;;1.15;;
7605;SDS011;3844;53.360;9.738;2022-07-10T15:02:53;7.47;;;1.30;;
7605;SDS011;3844;53.360;9.738;2022-07-10T15:05:19;8.25;;;1.17;;
7605;SDS011;3844;53.360;9.738;2022-07-10T15:07:45;7.40;;;1.30;;
7605;SDS011;3844;53.360;9.738;2022-07-10T15:10:10;8.38;;;1.58;;
7605;SDS011;3844;53.360;9.738;2022-07-10T15:12:37;7.80;;;1.50;;
7605;SDS011;3844;53.360;9.738;2022-07-10T15:15:04;8.00;;;1.30;;
7605;SDS011;3844;53.360;9.738;2022-07-10T15:17:33;9.80;;;1.60;;
7605;SDS011;3844;53.360;9.738;2022-07-10T15:20:00;8.25;;;1.50;;
7605;SDS011;3844;53.360;9.738;2022-07-10T15:22:26;8.40;;;1.40;;
7605;SDS011;3844;53.360;9.738;2022-07-10T15:24:52;7.22;;;1.52;;
7605;SDS011;3844;53.360;9.738;2022-07-10T15:27:18;5.90;;;1.30;;
7605;SDS011;3844;53.360;9.738;2022-07-10T15:29:44;7.60;;;1.40;;
7605;SDS011;3844;53.360;9.738;2022-07-10T15:32:09;7.07;;;1.25;;
7605;SDS011;3844;53.360;9.738;2022-07-10T15:34:37;10.13;;;1.40;;
7605;SDS011;3844;53.360;9.738;2022-07-10T15:37:03;6.25;;;1.30;;
7605;SDS011;3844;53.360;9.738;2022-07-10T15:39:29;10.80;;;1.60;;
7605;SDS011;3844;53.360;9.738;2022-07-10T15:42:06;5.18;;;1.23;;
7605;SDS011;3844;53.360;9.738;2022-07-10T15:44:36;9.18;;;1.50;;
7605;SDS011;3844;53.360;9.738;2022-07-10T15:47:02;9.40;;;1.73;;
7605;SDS011;3844;53.360;9.738;2022-07-10T15:49:28;8.50;;;2.50;;
7605;SDS011;3844;53.360;9.738;2022-07-10T15:51:54;9.77;;;2.00;;
7605;SDS011;3844;53.360;9.738;2022-07-10T15:54:21;8.60;;;1.45;;
7605;SDS011;3844;53.360;9.738;2022-07-10T15:56:47;6.35;;;1.40;;
7605;SDS011;3844;53.360;9.738;2022-07-10T15:59:13;8.98;;;1.40;;